createdAt,value
2022-11-15T00:02:06.866Z,9.01
2022-11-15T00:04:51.830Z,9.10
2022-11-15T00:07:55.176Z,9.06
2022-11-15T00:10:41.348Z,9.04
2022-11-15T00:13:26.397Z,9.01
2022-11-15T00:16:11.787Z,9.06
2022-11-15T00:18:56.603Z,9.05
2022-11-15T00:21:42.101Z,9.08
2022-11-15T00:24:27.057Z,9.10
2022-11-15T00:27:12.481Z,9.07
2022-11-15T00:29:57.775Z,9.20
2022-11-15T00:32:42.955Z,9.23
2022-11-15T00:35:27.856Z,9.32
2022-11-15T00:38:12.896Z,9.31
2022-11-15T00:40:58.083Z,9.34
2022-11-15T00:43:43.055Z,9.39
2022-11-15T00:46:28.283Z,9.39
2022-11-15T00:49:13.156Z,9.42
2022-11-15T00:51:58.037Z,9.43
2022-11-15T00:54:43.003Z,9.51
2022-11-15T00:57:28.224Z,9.59
2022-11-15T01:00:14.560Z,9.61
2022-11-15T01:03:01.149Z,9.72
2022-11-15T01:05:46.247Z,9.65
2022-11-15T01:08:31.354Z,9.77
2022-11-15T01:11:16.822Z,9.80
2022-11-15T01:14:02.043Z,9.77
2022-11-15T01:16:47.103Z,9.82
2022-11-15T01:19:32.106Z,9.79
2022-11-15T01:22:17.568Z,9.80
2022-11-15T01:25:02.498Z,9.88
2022-11-15T01:27:47.862Z,9.92
2022-11-15T01:30:33.307Z,9.91
2022-11-15T01:33:18.404Z,9.98
2022-11-15T01:36:08.914Z,9.97
2022-11-15T01:39:03.165Z,9.93
2022-11-15T01:41:48.217Z,10.06
2022-11-15T01:44:44.221Z,9.97
2022-11-15T01:47:32.202Z,9.80
2022-11-15T01:50:23.003Z,9.80
2022-11-15T01:53:08.384Z,9.70
2022-11-15T01:55:54.849Z,9.67
2022-11-15T01:58:41.950Z,9.73
2022-11-15T02:01:27.748Z,9.67
2022-11-15T02:04:34.730Z,9.70
2022-11-15T02:07:22.635Z,9.73
2022-11-15T02:10:12.094Z,9.74
2022-11-15T02:12:59.503Z,9.73
2022-11-15T02:16:09.293Z,9.79
2022-11-15T02:19:41.360Z,9.82
2022-11-15T02:22:35.578Z,9.81
2022-11-15T02:25:39.183Z,9.85
2022-11-15T02:28:49.256Z,9.85
2022-11-15T02:31:52.402Z,9.83
2022-11-15T02:34:49.248Z,9.86
2022-11-15T02:37:46.058Z,9.93
2022-11-15T02:40:38.365Z,9.95
2022-11-15T02:43:32.619Z,9.99
2022-11-15T02:46:24.191Z,9.99
2022-11-15T02:49:12.217Z,10.04
2022-11-15T02:51:57.420Z,10.07
2022-11-15T02:54:42.430Z,10.09
2022-11-15T02:57:52.238Z,10.13
2022-11-15T03:00:48.103Z,10.19
2022-11-15T03:03:58.100Z,10.24
2022-11-15T03:07:04.834Z,10.31
2022-11-15T03:10:07.468Z,10.37
2022-11-15T03:13:00.827Z,10.42
2022-11-15T03:15:56.024Z,10.41
2022-11-15T03:18:50.908Z,10.47
2022-11-15T03:21:38.236Z,10.50
2022-11-15T03:24:26.276Z,10.54
2022-11-15T03:27:16.524Z,10.58
2022-11-15T03:30:06.324Z,10.57
2022-11-15T03:32:57.262Z,10.60
2022-11-15T03:35:45.490Z,10.66
2022-11-15T03:38:35.060Z,10.67
2022-11-15T03:41:45.077Z,10.65
2022-11-15T03:44:57.654Z,10.62
2022-11-15T03:47:45.230Z,10.57
2022-11-15T03:50:30.565Z,10.56
2022-11-15T03:53:15.708Z,10.54
2022-11-15T03:56:01.029Z,10.50
2022-11-15T03:58:45.831Z,10.44
2022-11-15T04:01:31.297Z,10.38
2022-11-15T04:04:16.561Z,10.37
2022-11-15T04:07:01.862Z,10.38
2022-11-15T04:09:47.105Z,10.38
2022-11-15T04:12:34.536Z,10.40
2022-11-15T04:15:23.110Z,10.50
2022-11-15T04:18:08.312Z,10.51
2022-11-15T04:20:53.772Z,10.53
2022-11-15T04:23:38.651Z,10.56
2022-11-15T04:26:24.574Z,10.61
2022-11-15T04:29:09.725Z,10.65
2022-11-15T04:31:55.134Z,10.71
2022-11-15T04:34:40.426Z,10.62
2022-11-15T04:37:25.407Z,10.59
2022-11-15T04:40:10.582Z,10.57
2022-11-15T04:43:00.801Z,10.59
2022-11-15T04:45:48.628Z,10.51
2022-11-15T04:48:34.077Z,10.55
2022-11-15T04:51:19.705Z,10.67
2022-11-15T04:54:04.892Z,10.69
2022-11-15T04:56:50.151Z,10.65
2022-11-15T04:59:35.033Z,10.66
2022-11-15T05:02:20.081Z,10.71
2022-11-15T05:05:05.427Z,10.72
2022-11-15T05:07:51.255Z,10.73
2022-11-15T05:10:36.375Z,10.72
2022-11-15T05:13:21.320Z,10.77
2022-11-15T05:16:06.886Z,10.81
2022-11-15T05:18:55.592Z,10.76
2022-11-15T05:21:40.694Z,10.77
2022-11-15T05:24:25.593Z,10.73
2022-11-15T05:27:10.619Z,10.71
2022-11-15T05:29:56.002Z,10.74
2022-11-15T05:32:41.824Z,10.82
2022-11-15T05:35:35.434Z,10.80
2022-11-15T05:38:20.465Z,10.89
2022-11-15T05:41:06.873Z,10.84
2022-11-15T05:43:52.570Z,10.76
2022-11-15T05:46:39.655Z,10.74
2022-11-15T05:49:27.772Z,10.70
2022-11-15T05:52:16.604Z,10.79
2022-11-15T05:55:03.880Z,10.76
2022-11-15T05:57:49.167Z,10.76
2022-11-15T06:00:34.572Z,10.76
2022-11-15T06:03:19.798Z,10.68
2022-11-15T06:06:04.856Z,10.75
2022-11-15T06:08:50.064Z,10.71
2022-11-15T06:11:35.476Z,10.74
2022-11-15T06:14:20.492Z,10.77
2022-11-15T06:17:11.048Z,10.71
2022-11-15T06:19:56.739Z,10.77
2022-11-15T06:22:41.414Z,10.77
2022-11-15T06:25:27.980Z,10.74
2022-11-15T06:28:12.974Z,10.79
2022-11-15T06:31:06.429Z,10.79
2022-11-15T06:33:51.571Z,10.83
2022-11-15T06:36:36.777Z,10.70
2022-11-15T06:39:21.829Z,10.72
2022-11-15T06:42:08.670Z,10.72
2022-11-15T06:44:53.678Z,10.71
2022-11-15T06:47:46.870Z,10.76
2022-11-15T06:50:32.059Z,10.79
2022-11-15T06:53:17.524Z,10.84
2022-11-15T06:56:07.369Z,10.87
2022-11-15T06:58:52.359Z,10.88
2022-11-15T07:01:37.404Z,10.90
2022-11-15T07:04:22.705Z,10.95
2022-11-15T07:07:07.846Z,11.01
2022-11-15T07:09:53.012Z,11.02
2022-11-15T07:12:38.329Z,11.02
2022-11-15T07:15:26.100Z,11.03
2022-11-15T07:18:11.319Z,11.06
2022-11-15T07:20:56.617Z,11.05
2022-11-15T07:23:41.703Z,11.07
2022-11-15T07:26:27.037Z,11.11
2022-11-15T07:29:12.582Z,11.11
2022-11-15T07:32:04.208Z,11.14
2022-11-15T07:34:49.439Z,11.19
2022-11-15T07:37:34.346Z,11.20
2022-11-15T07:40:19.099Z,11.24
2022-11-15T07:43:08.237Z,11.32
2022-11-15T07:45:58.651Z,11.37
2022-11-15T07:48:45.547Z,11.43
2022-11-15T07:51:30.896Z,11.52
2022-11-15T07:54:16.324Z,11.59
2022-11-15T07:57:06.835Z,11.64
2022-11-15T07:59:52.833Z,11.72
2022-11-15T08:02:37.799Z,11.79
2022-11-15T08:05:23.216Z,11.89
2022-11-15T08:08:11.146Z,12.02
2022-11-15T08:10:58.471Z,12.16
2022-11-15T08:13:43.309Z,12.29
2022-11-15T08:16:28.267Z,12.40
2022-11-15T08:19:13.151Z,12.49
2022-11-15T08:21:58.405Z,12.56
2022-11-15T08:24:43.465Z,12.53
2022-11-15T08:27:28.312Z,12.55
2022-11-15T08:30:14.066Z,12.48
2022-11-15T08:32:59.438Z,12.62
2022-11-15T08:35:45.103Z,12.62
2022-11-15T08:38:30.482Z,12.72
2022-11-15T08:41:28.506Z,12.80
2022-11-15T08:44:13.862Z,12.92
2022-11-15T08:46:59.209Z,13.09
2022-11-15T08:49:44.723Z,13.18
2022-11-15T08:52:29.770Z,13.30
2022-11-15T08:55:16.897Z,13.36
2022-11-15T08:58:02.554Z,13.43
2022-11-15T09:00:47.830Z,13.45
2022-11-15T09:03:32.947Z,13.48
2022-11-15T09:06:17.701Z,13.47
2022-11-15T09:09:03.776Z,13.49
2022-11-15T09:11:49.060Z,13.48
2022-11-15T09:14:35.095Z,13.50
2022-11-15T09:17:24.662Z,13.55
2022-11-15T09:20:10.347Z,13.62
2022-11-15T09:22:55.017Z,13.69
2022-11-15T09:25:40.494Z,13.75
2022-11-15T09:28:25.416Z,13.77
2022-11-15T09:31:10.625Z,13.69
2022-11-15T09:33:56.495Z,13.65
2022-11-15T09:36:41.584Z,13.68
2022-11-15T09:39:27.097Z,13.72
2022-11-15T09:42:33.304Z,13.93
2022-11-15T09:45:29.540Z,13.96
2022-11-15T09:48:39.230Z,13.90
2022-11-15T09:51:30.078Z,13.92
2022-11-15T09:54:52.349Z,13.86
2022-11-15T09:57:36.051Z,14.01
2022-11-15T10:00:46.084Z,14.03
2022-11-15T10:03:35.652Z,14.11
2022-11-15T10:06:26.233Z,14.07
2022-11-15T10:09:23.797Z,13.93
2022-11-15T10:12:11.069Z,14.01
2022-11-15T10:15:15.159Z,14.00
2022-11-15T10:18:44.688Z,13.95
2022-11-15T10:21:45.148Z,14.04
2022-11-15T10:24:41.409Z,14.03
2022-11-15T10:27:26.607Z,14.15
2022-11-15T10:30:14.477Z,14.17
2022-11-15T10:33:11.184Z,14.19
2022-11-15T10:36:17.798Z,14.20
2022-11-15T10:39:04.082Z,14.21
2022-11-15T10:41:50.099Z,14.17
2022-11-15T10:44:43.675Z,14.17
2022-11-15T10:47:39.251Z,14.16
2022-11-15T10:50:31.414Z,14.43
2022-11-15T10:53:20.724Z,14.54
2022-11-15T10:56:14.260Z,14.51
2022-11-15T10:59:00.740Z,14.62
2022-11-15T11:01:47.925Z,14.52
2022-11-15T11:04:51.447Z,14.46
2022-11-15T11:07:38.579Z,14.51
2022-11-15T11:10:50.312Z,14.38
2022-11-15T11:13:38.167Z,14.35
2022-11-15T11:16:42.119Z,14.34
2022-11-15T11:19:49.748Z,14.47
2022-11-15T11:22:47.991Z,14.28
2022-11-15T11:25:40.673Z,14.32
2022-11-15T11:28:35.061Z,14.38
2022-11-15T11:31:39.478Z,14.63
2022-11-15T11:35:02.608Z,14.70
2022-11-15T11:37:56.353Z,14.84
2022-11-15T11:40:53.235Z,15.14
2022-11-15T11:43:56.505Z,15.42
2022-11-15T11:46:52.840Z,15.18
2022-11-15T11:49:41.307Z,15.30
2022-11-15T11:52:34.012Z,15.12
2022-11-15T11:55:42.084Z,14.98
2022-11-15T11:58:42.586Z,15.00
2022-11-15T12:01:35.244Z,14.77
2022-11-15T12:04:26.180Z,14.78
2022-11-15T12:07:33.441Z,15.01
2022-11-15T12:10:24.730Z,15.01
2022-11-15T12:13:20.350Z,15.15
2022-11-15T12:16:13.336Z,15.16
2022-11-15T12:19:02.503Z,14.95
2022-11-15T12:21:56.629Z,15.12
2022-11-15T12:24:47.037Z,15.35
2022-11-15T12:27:41.212Z,15.36
2022-11-15T12:30:32.488Z,15.19
2022-11-15T12:33:36.254Z,15.35
2022-11-15T12:36:24.179Z,15.52
2022-11-15T12:39:10.781Z,15.18
2022-11-15T12:41:55.986Z,15.44
2022-11-15T12:44:41.730Z,15.75
2022-11-15T12:47:28.015Z,15.88
2022-11-15T12:57:48.624Z,16.60
2022-11-15T13:00:33.605Z,16.73
2022-11-15T13:03:22.625Z,16.68
2022-11-15T13:06:10.572Z,16.52
2022-11-15T13:08:55.613Z,16.66
2022-11-15T13:11:56.276Z,16.87
2022-11-15T13:14:46.179Z,17.05
2022-11-15T13:17:37.510Z,17.09
2022-11-15T13:20:33.574Z,16.93
2022-11-15T13:23:18.821Z,17.01
2022-11-15T13:26:06.934Z,16.78
2022-11-15T13:28:52.868Z,17.33
2022-11-15T13:31:42.917Z,17.29
2022-11-15T13:34:50.967Z,16.78
2022-11-15T13:37:36.474Z,15.97
2022-11-15T13:40:36.744Z,15.95
2022-11-15T13:43:22.043Z,15.86
2022-11-15T13:46:27.307Z,15.83
2022-11-15T13:49:12.273Z,15.52
2022-11-15T13:51:57.457Z,15.39
2022-11-15T13:55:13.173Z,15.35
2022-11-15T13:58:01.664Z,15.68
2022-11-15T14:00:46.834Z,15.67
2022-11-15T14:03:35.733Z,15.68
2022-11-15T14:06:23.336Z,15.65
2022-11-15T14:09:11.510Z,15.38
2022-11-15T14:11:57.815Z,15.11
2022-11-15T14:14:47.582Z,14.94
2022-11-15T14:17:38.094Z,15.07
2022-11-15T14:20:26.456Z,15.52
2022-11-15T14:23:28.470Z,15.60
2022-11-15T14:26:33.329Z,15.74
2022-11-15T14:29:29.717Z,15.57
2022-11-15T14:32:21.133Z,15.30
2022-11-15T14:35:14.708Z,15.02
2022-11-15T14:37:59.928Z,14.82
2022-11-15T14:40:45.215Z,14.63
2022-11-15T14:43:30.777Z,14.67
2022-11-15T14:46:16.239Z,14.60
2022-11-15T14:49:01.103Z,14.62
2022-11-15T14:51:46.353Z,14.49
2022-11-15T14:54:31.756Z,14.43
2022-11-15T14:57:16.705Z,14.47
2022-11-15T15:00:02.134Z,14.54
2022-11-15T15:02:48.644Z,14.57
2022-11-15T15:05:35.258Z,14.19
2022-11-15T15:08:20.657Z,14.10
2022-11-15T15:11:14.184Z,13.99
2022-11-15T15:13:59.220Z,14.00
2022-11-15T15:16:44.530Z,13.88
2022-11-15T15:19:30.002Z,13.87
2022-11-15T15:22:17.551Z,13.81
2022-11-15T15:25:03.010Z,13.82
2022-11-15T15:27:48.336Z,13.75
2022-11-15T15:30:33.389Z,13.71
2022-11-15T15:33:18.425Z,13.61
2022-11-15T15:36:04.799Z,13.57
2022-11-15T15:38:49.663Z,13.57
2022-11-15T15:41:38.256Z,13.50
2022-11-15T15:44:23.664Z,13.62
2022-11-15T15:47:14.452Z,13.55
2022-11-15T15:49:59.520Z,13.71
2022-11-15T15:52:44.548Z,13.72
2022-11-15T15:55:32.386Z,13.60
2022-11-15T15:58:17.775Z,13.58
2022-11-15T16:01:02.686Z,13.53
2022-11-15T16:03:48.019Z,13.54
2022-11-15T16:06:37.728Z,13.37
2022-11-15T16:09:23.220Z,13.43
2022-11-15T16:12:08.808Z,13.36
2022-11-15T16:14:54.123Z,13.32
2022-11-15T16:17:48.138Z,13.29
2022-11-15T16:20:39.124Z,13.19
2022-11-15T16:23:24.303Z,13.12
2022-11-15T16:26:29.745Z,12.98
2022-11-15T16:29:15.197Z,13.02
2022-11-15T16:32:00.210Z,13.00
2022-11-15T16:34:49.082Z,12.93
2022-11-15T16:37:34.670Z,12.89
2022-11-15T16:40:19.630Z,12.87
2022-11-15T16:43:04.591Z,12.76
2022-11-15T16:45:51.011Z,12.83
2022-11-15T16:48:36.303Z,12.85
2022-11-15T16:51:23.530Z,12.93
2022-11-15T16:54:08.827Z,12.93
2022-11-15T16:56:54.222Z,12.79
2022-11-15T16:59:39.162Z,12.85
2022-11-15T17:02:24.718Z,12.88
2022-11-15T17:05:13.564Z,12.83
2022-11-15T17:08:02.306Z,12.85
2022-11-15T17:10:47.472Z,12.89
2022-11-15T17:13:32.778Z,12.91
2022-11-15T17:16:18.580Z,12.86
2022-11-15T17:19:04.962Z,12.81
2022-11-15T17:21:50.013Z,12.77
2022-11-15T17:24:35.210Z,12.79
2022-11-15T17:27:20.156Z,12.70
2022-11-15T17:30:07.047Z,12.65
2022-11-15T17:32:52.532Z,12.67
2022-11-15T17:35:37.271Z,12.65
2022-11-15T17:38:22.805Z,12.71
2022-11-15T17:41:12.219Z,12.68
2022-11-15T17:43:58.204Z,12.78
2022-11-15T17:46:44.298Z,12.73
2022-11-15T17:49:35.198Z,12.84
2022-11-15T17:52:20.109Z,12.81
2022-11-15T17:55:05.486Z,12.75
2022-11-15T17:57:50.834Z,12.82
2022-11-15T18:00:35.735Z,12.89
2022-11-15T18:03:21.104Z,12.91
2022-11-15T18:06:07.640Z,12.86
2022-11-15T18:08:54.354Z,12.90
2022-11-15T18:11:41.884Z,12.85
2022-11-15T18:14:27.199Z,12.85
2022-11-15T18:17:12.436Z,12.82
2022-11-15T18:19:57.382Z,12.86
2022-11-15T18:22:42.723Z,12.83
2022-11-15T18:25:28.092Z,12.87
2022-11-15T18:28:13.418Z,12.82
2022-11-15T18:30:59.576Z,12.86
2022-11-15T18:33:45.566Z,12.86
2022-11-15T18:36:31.028Z,12.87
2022-11-15T18:50:31.781Z,12.81
2022-11-15T18:53:17.449Z,12.79
2022-11-15T18:56:06.957Z,12.76
2022-11-15T18:58:55.999Z,12.72
2022-11-15T19:01:44.054Z,12.75
2022-11-15T19:04:29.209Z,12.78
2022-11-15T19:07:14.249Z,12.80
2022-11-15T19:09:59.639Z,12.76
2022-11-15T19:12:44.468Z,12.71
2022-11-15T19:15:30.981Z,12.73
2022-11-15T19:18:16.312Z,12.74
2022-11-15T19:21:06.414Z,12.71
2022-11-15T19:23:51.997Z,12.74
2022-11-15T19:26:37.183Z,12.77
2022-11-15T19:29:28.386Z,12.72
2022-11-15T19:32:13.316Z,12.77
2022-11-15T19:34:58.209Z,12.77
2022-11-15T19:37:43.096Z,12.78
2022-11-15T19:40:28.660Z,12.80
2022-11-15T19:43:13.914Z,12.82
2022-11-15T19:46:02.479Z,12.85
2022-11-15T19:48:48.266Z,12.89
2022-11-15T19:51:33.598Z,12.90
2022-11-15T19:54:18.740Z,12.95
2022-11-15T19:57:04.222Z,12.84
2022-11-15T19:59:48.918Z,12.79
2022-11-15T20:02:33.730Z,12.79
2022-11-15T20:05:19.200Z,12.74
2022-11-15T20:08:04.337Z,12.86
2022-11-15T20:10:49.346Z,12.86
2022-11-15T20:13:34.484Z,12.75
2022-11-15T20:16:22.206Z,12.69
2022-11-15T20:19:07.166Z,12.69
2022-11-15T20:21:52.263Z,12.79
2022-11-15T20:24:37.228Z,12.76
2022-11-15T20:27:21.968Z,12.81
2022-11-15T20:30:07.407Z,12.83
2022-11-15T20:32:52.662Z,12.79
2022-11-15T20:35:37.682Z,12.68
2022-11-15T20:38:23.503Z,12.81
2022-11-15T20:41:08.995Z,12.84
2022-11-15T20:43:54.053Z,12.80
2022-11-15T20:46:39.041Z,12.88
2022-11-15T20:49:24.384Z,12.86
2022-11-15T20:52:09.794Z,12.82
2022-11-15T20:54:57.938Z,12.83
2022-11-15T20:57:42.927Z,12.94
2022-11-15T21:00:28.045Z,12.84
2022-11-15T21:03:14.669Z,12.92
2022-11-15T21:06:00.555Z,12.88
2022-11-15T21:08:45.607Z,12.90
2022-11-15T21:11:31.902Z,12.81
2022-11-15T21:14:29.040Z,12.72
2022-11-15T21:17:15.628Z,12.74
2022-11-15T21:20:07.034Z,12.76
2022-11-15T21:22:53.863Z,12.81
2022-11-15T21:25:47.657Z,12.66
2022-11-15T21:28:32.966Z,12.65
2022-11-15T21:31:18.049Z,12.64
2022-11-15T21:34:04.900Z,12.62
2022-11-15T21:36:56.148Z,12.61
2022-11-15T21:39:41.051Z,12.61
2022-11-15T21:42:26.111Z,12.55
2022-11-15T21:45:11.192Z,12.51
2022-11-15T21:48:02.244Z,12.55
2022-11-15T21:50:58.043Z,12.41
2022-11-15T21:53:44.924Z,12.33
2022-11-15T21:56:31.921Z,12.45
2022-11-15T21:59:18.941Z,12.42
2022-11-15T22:02:12.106Z,12.23
2022-11-15T22:04:57.195Z,12.26
2022-11-15T22:07:42.230Z,12.23
2022-11-15T22:10:28.928Z,12.25
2022-11-15T22:13:14.116Z,12.27
2022-11-15T22:15:59.897Z,12.19
2022-11-15T22:18:44.913Z,12.13
2022-11-15T22:21:30.658Z,12.18
2022-11-15T22:24:16.152Z,12.05
2022-11-15T22:27:03.112Z,12.02
2022-11-15T22:29:54.494Z,11.98
2022-11-15T22:32:39.469Z,11.93
2022-11-15T22:35:27.453Z,11.86
2022-11-15T22:38:12.943Z,11.73
2022-11-15T22:40:58.519Z,11.73
2022-11-15T22:43:43.551Z,11.76
2022-11-15T22:46:31.465Z,11.53
2022-11-15T22:49:16.602Z,11.54
2022-11-15T22:52:04.756Z,11.55
2022-11-15T22:54:51.169Z,11.56
2022-11-15T22:57:36.548Z,11.49
2022-11-15T23:00:21.940Z,11.54
2022-11-15T23:03:07.238Z,11.54
2022-11-15T23:05:52.675Z,11.30
2022-11-15T23:08:38.299Z,11.34
2022-11-15T23:11:23.811Z,11.34
2022-11-15T23:14:08.709Z,11.34
2022-11-15T23:16:53.831Z,11.26
2022-11-15T23:19:38.839Z,11.20
2022-11-15T23:22:23.854Z,11.25
2022-11-15T23:25:09.125Z,11.07
2022-11-15T23:27:54.342Z,11.17
2022-11-15T23:30:39.228Z,11.21
2022-11-15T23:33:24.646Z,11.15
2022-11-15T23:36:09.668Z,11.10
2022-11-15T23:38:55.579Z,11.06
2022-11-15T23:41:40.467Z,11.05
2022-11-15T23:44:25.916Z,10.98
2022-11-15T23:47:10.911Z,10.88
2022-11-15T23:49:55.864Z,10.89
2022-11-15T23:52:40.656Z,10.85
2022-11-15T23:55:25.887Z,10.94
2022-11-15T23:58:10.802Z,10.87
